createdAt,value
2022-11-23T00:01:27.535Z,161.85
2022-11-23T00:03:57.334Z,146.73
2022-11-23T00:06:26.186Z,152.32
2022-11-23T00:08:54.347Z,167.95
2022-11-23T00:11:23.276Z,161.73
2022-11-23T00:13:51.521Z,161.73
2022-11-23T00:16:23.928Z,163.05
2022-11-23T00:18:58.839Z,163.27
2022-11-23T00:21:28.603Z,156.52
2022-11-23T00:23:55.962Z,171.27
2022-11-23T00:26:23.291Z,152.05
2022-11-23T00:28:50.844Z,151.25
2022-11-23T00:31:20.494Z,171.73
2022-11-23T00:33:53.119Z,163.40
2022-11-23T00:36:21.480Z,148.38
2022-11-23T00:38:49.724Z,146.95
2022-11-23T00:41:19.729Z,161.65
2022-11-23T00:43:47.365Z,167.75
2022-11-23T00:46:21.664Z,164.32
2022-11-23T00:48:50.857Z,150.55
2022-11-23T00:51:29.299Z,145.10
2022-11-23T00:53:57.363Z,161.88
2022-11-23T00:56:26.280Z,162.82
2022-11-23T00:58:55.449Z,177.68
2022-11-23T01:01:25.156Z,147.55
2022-11-23T01:03:58.661Z,159.27
2022-11-23T01:06:38.241Z,148.15
2022-11-23T01:09:14.736Z,162.95
2022-11-23T01:11:42.110Z,151.60
2022-11-23T01:14:09.386Z,153.68
2022-11-23T01:16:40.897Z,161.98
2022-11-23T01:19:15.690Z,166.25
2022-11-23T01:21:43.368Z,170.93
2022-11-23T01:24:21.961Z,174.70
2022-11-23T01:26:53.678Z,169.65
2022-11-23T01:29:21.399Z,168.77
2022-11-23T01:31:48.939Z,173.25
2022-11-23T01:34:17.330Z,163.85
2022-11-23T01:36:45.620Z,160.65
2022-11-23T01:39:13.240Z,165.70
2022-11-23T01:41:42.568Z,152.60
2022-11-23T01:44:30.863Z,158.47
2022-11-23T01:47:03.809Z,166.82
2022-11-23T01:49:41.341Z,156.18
2022-11-23T01:52:15.531Z,150.15
2022-11-23T01:54:50.551Z,159.90
2022-11-23T01:57:34.719Z,152.63
2022-11-23T02:00:02.174Z,133.60
2022-11-23T02:02:45.992Z,139.90
2022-11-23T02:05:15.161Z,138.18
2022-11-23T02:07:47.181Z,146.52
2022-11-23T02:10:16.032Z,140.07
2022-11-23T02:12:43.210Z,128.60
2022-11-23T02:15:12.685Z,136.55
2022-11-23T02:17:43.339Z,142.98
2022-11-23T02:20:18.044Z,136.15
2022-11-23T02:22:57.585Z,139.35
2022-11-23T02:25:46.049Z,141.57
2022-11-23T02:28:20.049Z,153.93
2022-11-23T02:30:50.642Z,145.10
2022-11-23T02:33:17.874Z,143.88
2022-11-23T02:36:00.124Z,148.93
2022-11-23T02:38:33.563Z,132.50
2022-11-23T02:41:01.420Z,143.43
2022-11-23T02:43:28.663Z,156.18
2022-11-23T02:46:03.348Z,147.98
2022-11-23T02:48:30.710Z,135.00
2022-11-23T02:50:57.825Z,158.85
2022-11-23T02:53:25.006Z,140.35
2022-11-23T02:55:54.242Z,119.13
2022-11-23T02:58:21.562Z,130.57
2022-11-23T03:00:48.804Z,153.15
2022-11-23T03:03:19.440Z,156.07
2022-11-23T03:05:46.593Z,147.10
2022-11-23T03:08:13.934Z,133.85
2022-11-23T03:10:41.122Z,146.20
2022-11-23T03:13:08.932Z,135.68
2022-11-23T03:15:38.352Z,149.05
2022-11-23T03:18:06.319Z,157.65
2022-11-23T03:20:33.912Z,153.45
2022-11-23T03:23:01.006Z,149.02
2022-11-23T03:25:28.239Z,138.48
2022-11-23T03:27:56.850Z,148.80
2022-11-23T03:30:24.000Z,146.02
2022-11-23T03:32:51.599Z,140.48
2022-11-23T03:35:19.882Z,140.48
2022-11-23T03:38:22.760Z,133.52
2022-11-23T03:40:51.403Z,142.25
2022-11-23T03:43:27.244Z,151.32
2022-11-23T03:45:54.452Z,144.48
2022-11-23T03:48:22.930Z,140.55
2022-11-23T03:50:50.124Z,154.57
2022-11-23T03:53:17.292Z,126.65
2022-11-23T03:55:48.730Z,149.95
2022-11-23T04:00:43.207Z,144.15
2022-11-23T04:03:12.601Z,130.95
2022-11-23T04:06:02.763Z,125.55
2022-11-23T04:08:48.613Z,144.95
2022-11-23T04:11:23.599Z,141.40
2022-11-23T04:13:51.081Z,139.00
2022-11-23T04:16:19.808Z,136.35
2022-11-23T04:18:47.040Z,120.95
2022-11-23T04:21:14.294Z,147.35
2022-11-23T04:23:41.448Z,138.30
2022-11-23T04:26:11.089Z,130.23
2022-11-23T04:28:41.801Z,143.32
2022-11-23T04:31:09.033Z,135.13
2022-11-23T04:33:47.996Z,148.27
2022-11-23T04:36:17.529Z,150.90
2022-11-23T04:38:44.995Z,137.18
2022-11-23T04:41:15.525Z,130.23
2022-11-23T04:43:42.610Z,139.10
2022-11-23T04:46:11.914Z,138.30
2022-11-23T04:48:39.159Z,126.25
2022-11-23T04:51:06.651Z,139.05
2022-11-23T04:53:37.873Z,129.90
2022-11-23T04:56:05.600Z,115.63
2022-11-23T04:58:36.976Z,126.28
2022-11-23T05:01:05.309Z,125.75
2022-11-23T05:03:37.294Z,126.03
2022-11-23T05:06:08.038Z,128.75
2022-11-23T05:08:40.128Z,127.40
2022-11-23T05:13:59.679Z,123.93
2022-11-23T05:16:27.756Z,115.25
2022-11-23T05:18:54.962Z,116.47
2022-11-23T05:21:22.441Z,119.82
2022-11-23T05:23:50.048Z,115.15
2022-11-23T05:26:19.162Z,125.40
2022-11-23T05:28:46.539Z,117.78
2022-11-23T05:31:15.857Z,115.30
2022-11-23T05:33:46.009Z,129.63
2022-11-23T05:36:14.886Z,123.05
2022-11-23T05:38:42.759Z,124.15
2022-11-23T05:41:19.122Z,120.15
2022-11-23T05:43:47.319Z,112.80
2022-11-23T05:46:19.729Z,124.40
2022-11-23T05:48:47.168Z,107.32
2022-11-23T05:51:14.321Z,109.75
2022-11-23T05:53:45.768Z,117.60
2022-11-23T05:56:37.288Z,106.38
2022-11-23T05:59:19.731Z,102.72
2022-11-23T06:01:52.419Z,112.15
2022-11-23T06:04:30.406Z,110.25
2022-11-23T06:07:01.338Z,104.53
2022-11-23T06:09:39.969Z,105.13
2022-11-23T06:14:37.400Z,87.03
2022-11-23T06:17:04.812Z,105.82
2022-11-23T06:19:39.320Z,106.95
2022-11-23T06:22:06.479Z,114.00
2022-11-23T06:24:39.602Z,101.40
2022-11-23T06:27:32.920Z,116.80
2022-11-23T06:32:32.219Z,104.20
2022-11-23T06:35:01.114Z,110.90
2022-11-23T06:37:32.315Z,100.72
2022-11-23T06:39:59.476Z,103.05
2022-11-23T06:42:42.047Z,96.55
2022-11-23T06:45:17.352Z,95.53
2022-11-23T06:47:45.489Z,106.85
2022-11-23T06:50:14.654Z,105.50
2022-11-23T06:52:43.488Z,109.55
2022-11-23T06:55:10.634Z,108.50
2022-11-23T06:57:37.730Z,95.65
2022-11-23T07:00:05.599Z,101.78
2022-11-23T07:02:37.003Z,97.50
2022-11-23T07:05:04.250Z,110.57
2022-11-23T07:07:33.232Z,106.50
2022-11-23T07:10:08.499Z,103.57
2022-11-23T07:12:44.192Z,115.60
2022-11-23T07:15:12.173Z,109.70
2022-11-23T07:17:41.701Z,107.10
2022-11-23T07:20:11.962Z,95.97
2022-11-23T07:22:40.361Z,101.38
2022-11-23T07:25:08.432Z,115.70
2022-11-23T07:27:35.704Z,115.38
2022-11-23T07:30:03.844Z,107.70
2022-11-23T07:32:31.039Z,114.60
2022-11-23T07:34:58.192Z,102.85
2022-11-23T07:37:26.850Z,115.82
2022-11-23T07:39:57.695Z,107.88
2022-11-23T07:42:34.462Z,113.93
2022-11-23T07:45:02.159Z,108.32
2022-11-23T07:47:29.599Z,122.30
2022-11-23T07:49:56.684Z,106.80
2022-11-23T07:52:24.121Z,107.68
2022-11-23T07:54:51.414Z,109.80
2022-11-23T07:57:18.528Z,111.05
2022-11-23T07:59:45.808Z,107.00
2022-11-23T08:02:16.278Z,114.97
2022-11-23T08:04:43.494Z,108.80
2022-11-23T08:07:10.716Z,110.80
2022-11-23T08:09:37.891Z,112.95
2022-11-23T08:12:05.564Z,104.88
2022-11-23T08:14:32.891Z,123.50
2022-11-23T08:17:00.246Z,105.20
2022-11-23T08:19:27.335Z,99.80
2022-11-23T08:21:54.447Z,114.65
2022-11-23T08:24:21.522Z,106.90
2022-11-23T08:26:49.244Z,111.82
2022-11-23T08:29:16.483Z,106.00
2022-11-23T08:31:44.044Z,110.35
2022-11-23T08:34:11.438Z,106.68
2022-11-23T08:36:38.764Z,115.25
2022-11-23T08:39:06.006Z,108.75
2022-11-23T08:41:33.964Z,106.47
2022-11-23T08:44:01.161Z,108.63
2022-11-23T08:46:28.260Z,108.15
2022-11-23T08:48:55.321Z,110.63
2022-11-23T08:51:25.206Z,105.57
2022-11-23T08:53:53.561Z,105.45
2022-11-23T08:56:20.718Z,101.18
2022-11-23T08:58:47.853Z,108.15
2022-11-23T09:01:16.991Z,113.70
2022-11-23T09:03:45.129Z,108.07
2022-11-23T09:06:12.838Z,99.43
2022-11-23T09:08:39.958Z,93.47
2022-11-23T09:11:10.366Z,97.63
2022-11-23T09:13:38.123Z,106.18
2022-11-23T09:16:06.841Z,97.18
2022-11-23T09:18:35.630Z,109.43
2022-11-23T09:21:04.949Z,88.25
2022-11-23T09:23:32.290Z,105.82
2022-11-23T09:26:00.551Z,106.50
2022-11-23T09:28:28.760Z,101.00
2022-11-23T09:30:57.441Z,108.70
2022-11-23T09:33:25.667Z,100.22
2022-11-23T09:36:00.809Z,112.15
2022-11-23T09:38:51.552Z,100.40
2022-11-23T09:41:49.780Z,97.45
2022-11-23T09:44:35.552Z,102.55
2022-11-23T09:47:02.769Z,96.55
2022-11-23T09:49:40.411Z,103.38
2022-11-23T09:52:18.616Z,97.18
2022-11-23T09:54:48.618Z,91.07
2022-11-23T09:57:22.735Z,105.30
2022-11-23T10:00:06.859Z,97.18
2022-11-23T10:02:40.933Z,105.55
2022-11-23T10:05:14.802Z,105.38
2022-11-23T10:07:56.512Z,104.35
2022-11-23T10:10:44.329Z,103.63
2022-11-23T10:13:27.476Z,86.40
2022-11-23T10:16:15.271Z,94.47
2022-11-23T10:18:48.162Z,92.95
2022-11-23T10:21:30.579Z,95.53
2022-11-23T10:24:19.483Z,93.03
2022-11-23T10:26:49.943Z,91.25
2022-11-23T10:29:25.700Z,105.53
2022-11-23T10:31:57.228Z,92.00
2022-11-23T10:35:07.146Z,107.15
2022-11-23T10:37:34.793Z,94.53
2022-11-23T10:40:02.050Z,95.10
2022-11-23T10:42:42.643Z,102.75
2022-11-23T10:45:24.051Z,92.07
2022-11-23T10:47:59.882Z,82.93
2022-11-23T10:50:30.230Z,96.03
2022-11-23T10:53:01.582Z,90.15
2022-11-23T10:55:55.111Z,95.88
2022-11-23T10:58:29.840Z,104.88
2022-11-23T11:01:06.891Z,97.32
2022-11-23T11:03:35.598Z,101.07
2022-11-23T11:06:11.357Z,100.78
2022-11-23T11:08:53.969Z,97.40
2022-11-23T11:11:29.641Z,103.93
2022-11-23T11:14:15.776Z,110.13
2022-11-23T11:16:53.591Z,93.85
2022-11-23T11:19:35.566Z,113.47
2022-11-23T11:22:24.706Z,104.47
2022-11-23T11:24:52.018Z,110.25
2022-11-23T11:27:24.698Z,97.95
2022-11-23T11:29:55.808Z,99.88
2022-11-23T11:32:41.538Z,98.13
2022-11-23T11:35:26.325Z,107.57
2022-11-23T11:38:00.771Z,107.53
2022-11-23T11:40:38.041Z,101.40
2022-11-23T11:43:39.484Z,95.93
2022-11-23T11:46:31.632Z,98.30
2022-11-23T11:49:15.121Z,102.97
2022-11-23T11:51:47.718Z,99.95
2022-11-23T11:54:37.275Z,97.40
2022-11-23T11:57:15.042Z,101.80
2022-11-23T11:59:47.399Z,101.85
2022-11-23T12:02:49.325Z,96.20
2022-11-23T12:05:28.484Z,88.65
2022-11-23T12:08:14.401Z,95.50
2022-11-23T12:10:51.301Z,99.93
2022-11-23T12:13:32.422Z,93.80
2022-11-23T12:16:11.326Z,108.05
2022-11-23T12:18:51.119Z,136.10
2022-11-23T12:22:09.081Z,125.20
2022-11-23T12:25:02.512Z,109.20
2022-11-23T12:28:05.005Z,107.28
2022-11-23T12:30:50.238Z,108.93
2022-11-23T12:33:42.679Z,116.00
2022-11-23T12:36:44.009Z,105.28
2022-11-23T12:39:41.889Z,106.78
2022-11-23T12:42:38.040Z,110.35
2022-11-23T12:45:39.007Z,101.30
2022-11-23T12:48:06.516Z,99.20
2022-11-23T12:50:39.316Z,106.57
2022-11-23T12:53:21.135Z,96.95
2022-11-23T12:56:06.711Z,95.60
2022-11-23T12:58:35.079Z,95.68
2022-11-23T13:01:13.550Z,96.57
2022-11-23T13:04:10.424Z,96.13
2022-11-23T13:10:04.249Z,97.45
2022-11-23T13:12:53.040Z,122.18
2022-11-23T13:15:58.004Z,117.20
2022-11-23T13:18:37.300Z,123.10
2022-11-23T13:21:29.794Z,135.32
2022-11-23T13:23:57.240Z,132.25
2022-11-23T13:26:28.420Z,130.30
2022-11-23T13:29:01.691Z,136.05
2022-11-23T13:31:31.789Z,131.00
2022-11-23T13:36:56.548Z,125.93
2022-11-23T13:39:52.041Z,121.95
2022-11-23T13:42:20.028Z,117.75
2022-11-23T13:44:47.210Z,123.28
2022-11-23T13:47:17.259Z,114.55
2022-11-23T13:49:52.330Z,138.45
2022-11-23T13:52:22.659Z,135.18
2022-11-23T13:55:09.301Z,139.05
2022-11-23T13:57:42.672Z,120.60
2022-11-23T14:00:48.073Z,101.85
2022-11-23T14:03:43.272Z,103.18
2022-11-23T14:06:43.680Z,92.88
2022-11-23T14:09:19.881Z,94.90
2022-11-23T14:12:07.954Z,88.78
2022-11-23T14:14:44.073Z,106.03
2022-11-23T14:17:40.929Z,100.20
2022-11-23T14:20:35.329Z,99.80
2022-11-23T14:23:25.124Z,103.88
2022-11-23T14:26:16.972Z,99.25
2022-11-23T14:29:14.594Z,112.53
2022-11-23T14:32:09.754Z,125.20
2022-11-23T14:35:01.843Z,119.35
2022-11-23T14:38:03.001Z,125.78
2022-11-23T14:41:05.369Z,131.07
2022-11-23T14:43:34.814Z,118.35
2022-11-23T14:46:04.410Z,128.07
2022-11-23T14:48:35.182Z,129.32
2022-11-23T14:51:12.700Z,133.63
2022-11-23T14:53:47.004Z,116.40
2022-11-23T14:56:35.722Z,100.97
2022-11-23T14:59:25.730Z,99.95
2022-11-23T15:01:55.855Z,100.55
2022-11-23T15:04:34.305Z,93.57
2022-11-23T15:07:07.097Z,93.25
2022-11-23T15:09:46.114Z,107.25
2022-11-23T15:12:26.336Z,94.00
2022-11-23T15:17:22.963Z,94.90
2022-11-23T15:20:01.006Z,105.72
2022-11-23T15:22:29.588Z,98.32
2022-11-23T15:25:08.593Z,105.30
2022-11-23T15:27:40.330Z,99.22
2022-11-23T15:30:37.650Z,99.88
2022-11-23T15:33:11.753Z,110.57
2022-11-23T15:35:40.844Z,99.90
2022-11-23T15:38:16.640Z,104.30
2022-11-23T15:40:48.736Z,90.70
2022-11-23T15:43:20.365Z,96.20
2022-11-23T15:45:47.572Z,91.18
2022-11-23T15:48:27.644Z,90.43
2022-11-23T15:51:03.384Z,86.22
2022-11-23T15:53:30.517Z,94.25
2022-11-23T15:56:06.221Z,97.18
2022-11-23T15:58:35.477Z,102.15
2022-11-23T16:01:13.617Z,92.93
2022-11-23T16:03:42.876Z,102.95
2022-11-23T16:06:16.962Z,106.72
2022-11-23T16:08:44.204Z,110.32
2022-11-23T16:11:33.888Z,115.80
2022-11-23T16:14:19.082Z,99.55
2022-11-23T16:16:48.729Z,104.63
2022-11-23T16:19:29.702Z,100.25
2022-11-23T16:22:02.789Z,113.00
2022-11-23T16:24:32.916Z,109.03
2022-11-23T16:27:01.523Z,110.63
2022-11-23T16:29:36.880Z,107.10
2022-11-23T16:32:07.376Z,116.00
2022-11-23T16:34:35.175Z,118.10
2022-11-23T16:37:04.192Z,111.63
2022-11-23T16:39:31.412Z,108.22
2022-11-23T16:41:58.509Z,103.97
2022-11-23T16:44:25.739Z,101.15
2022-11-23T16:46:53.017Z,100.60
2022-11-23T16:49:23.640Z,102.25
2022-11-23T16:51:56.993Z,102.00
2022-11-23T16:54:25.556Z,94.72
2022-11-23T16:56:53.469Z,95.50
2022-11-23T16:59:20.940Z,94.75
2022-11-23T17:01:53.999Z,91.72
2022-11-23T17:04:24.736Z,84.53
2022-11-23T17:06:51.965Z,90.00
2022-11-23T17:09:19.064Z,89.95
2022-11-23T17:11:50.661Z,87.93
2022-11-23T17:14:19.676Z,85.57
2022-11-23T17:16:47.995Z,90.03
2022-11-23T17:19:20.283Z,89.82
2022-11-23T17:21:47.567Z,85.95
2022-11-23T17:24:14.722Z,81.50
2022-11-23T17:26:46.718Z,84.05
2022-11-23T17:29:19.234Z,89.15
2022-11-23T17:31:47.762Z,91.82
2022-11-23T17:34:15.848Z,93.90
2022-11-23T17:36:45.642Z,103.13
2022-11-23T17:39:20.289Z,95.72
2022-11-23T17:41:48.362Z,92.63
2022-11-23T17:44:16.662Z,94.07
2022-11-23T17:46:45.074Z,94.38
2022-11-23T17:49:14.372Z,99.53
2022-11-23T17:51:41.564Z,100.00
2022-11-23T17:54:08.943Z,97.28
2022-11-23T17:56:36.461Z,101.70
2022-11-23T17:59:04.369Z,101.78
2022-11-23T18:01:31.678Z,102.32
2022-11-23T18:04:01.264Z,87.03
2022-11-23T18:06:29.684Z,100.20
2022-11-23T18:08:57.321Z,102.47
2022-11-23T18:11:25.012Z,90.93
2022-11-23T18:13:52.538Z,86.60
2022-11-23T18:16:21.375Z,78.57
2022-11-23T18:18:49.768Z,74.85
2022-11-23T18:21:17.612Z,83.20
2022-11-23T18:23:45.221Z,87.68
2022-11-23T18:26:21.249Z,93.18
2022-11-23T18:28:50.054Z,95.05
2022-11-23T18:31:18.349Z,99.03
2022-11-23T18:33:46.803Z,87.95
2022-11-23T18:36:14.405Z,89.43
2022-11-23T18:38:45.124Z,98.65
2022-11-23T18:41:14.680Z,101.40
2022-11-23T18:43:42.622Z,99.93
2022-11-23T18:46:11.712Z,102.32
2022-11-23T18:48:39.170Z,103.22
2022-11-23T18:51:06.589Z,95.55
2022-11-23T18:53:33.928Z,112.70
2022-11-23T18:56:05.323Z,108.65
2022-11-23T18:58:34.122Z,128.85
2022-11-23T19:01:13.215Z,113.00
2022-11-23T19:03:44.801Z,125.30
2022-11-23T19:06:13.923Z,116.57
2022-11-23T19:08:43.205Z,132.48
2022-11-23T19:11:17.841Z,136.90
2022-11-23T19:13:47.457Z,134.00
2022-11-23T19:16:23.118Z,129.13
2022-11-23T19:18:55.108Z,119.20
2022-11-23T19:21:24.863Z,119.50
2022-11-23T19:23:53.300Z,105.20
2022-11-23T19:26:23.727Z,110.35
2022-11-23T19:28:52.412Z,109.72
2022-11-23T19:31:24.844Z,127.40
2022-11-23T19:33:54.316Z,123.15
2022-11-23T19:36:24.362Z,108.20
2022-11-23T19:38:52.374Z,103.65
2022-11-23T19:41:23.030Z,147.35
2022-11-23T19:43:55.710Z,130.50
2022-11-23T19:46:23.982Z,161.25
2022-11-23T19:48:51.321Z,177.40
2022-11-23T19:51:20.459Z,174.90
2022-11-23T19:53:49.456Z,200.52
2022-11-23T19:56:19.733Z,198.85
2022-11-23T19:58:50.572Z,181.85
2022-11-23T20:01:19.577Z,168.73
2022-11-23T20:03:48.958Z,164.75
2022-11-23T20:06:28.392Z,153.47
2022-11-23T20:09:00.846Z,145.93
2022-11-23T20:11:31.720Z,142.77
2022-11-23T20:13:59.203Z,112.25
2022-11-23T20:16:28.980Z,122.05
2022-11-23T20:18:59.292Z,132.57
2022-11-23T20:21:28.111Z,123.15
2022-11-23T20:24:01.464Z,131.25
2022-11-23T20:26:32.790Z,132.32
2022-11-23T20:28:59.963Z,154.70
2022-11-23T20:31:29.602Z,153.73
2022-11-23T20:33:57.474Z,171.85
2022-11-23T20:36:30.142Z,179.02
2022-11-23T20:38:58.080Z,211.15
2022-11-23T20:41:30.411Z,232.57
2022-11-23T20:44:00.376Z,216.73
2022-11-23T20:46:59.883Z,202.63
2022-11-23T20:49:17.602Z,201.00
2022-11-23T20:51:44.712Z,214.45
2022-11-23T20:54:12.431Z,199.95
2022-11-23T20:56:39.648Z,183.07
2022-11-23T20:59:07.045Z,164.23
2022-11-23T21:01:34.808Z,136.43
2022-11-23T21:04:02.276Z,122.28
2022-11-23T21:06:30.117Z,126.60
2022-11-23T21:08:59.782Z,113.40
2022-11-23T21:11:47.439Z,105.90
2022-11-23T21:14:24.711Z,114.38
2022-11-23T21:16:55.364Z,109.50
2022-11-23T21:19:30.696Z,107.30
2022-11-23T21:21:59.299Z,108.18
2022-11-23T21:24:26.808Z,99.30
2022-11-23T21:26:54.038Z,97.45
2022-11-23T21:29:21.373Z,103.22
2022-11-23T21:31:49.462Z,110.97
2022-11-23T21:34:27.531Z,123.35
2022-11-23T21:36:56.716Z,126.80
2022-11-23T21:39:24.528Z,132.82
2022-11-23T21:41:53.721Z,121.72
2022-11-23T21:44:22.306Z,128.68
2022-11-23T21:46:49.741Z,125.03
2022-11-23T21:49:17.231Z,110.85
2022-11-23T21:51:46.009Z,106.13
2022-11-23T21:54:15.982Z,106.57
2022-11-23T21:56:45.008Z,108.13
2022-11-23T21:59:12.683Z,111.80
2022-11-23T22:01:41.100Z,121.93
2022-11-23T22:04:11.507Z,116.32
2022-11-23T22:06:40.001Z,111.57
2022-11-23T22:09:09.797Z,103.13
2022-11-23T22:11:41.314Z,115.68
2022-11-23T22:14:14.026Z,108.22
2022-11-23T22:16:42.791Z,122.00
2022-11-23T22:19:12.485Z,98.03
2022-11-23T22:21:41.148Z,96.00
2022-11-23T22:24:12.913Z,108.82
2022-11-23T22:26:40.520Z,106.32
2022-11-23T22:29:08.007Z,120.68
2022-11-23T22:31:36.352Z,116.20
2022-11-23T22:34:10.648Z,121.57
2022-11-23T22:36:38.131Z,119.15
2022-11-23T22:39:07.100Z,111.90
2022-11-23T22:41:37.624Z,148.13
2022-11-23T22:44:07.856Z,119.95
2022-11-23T22:46:35.808Z,113.60
2022-11-23T22:49:03.389Z,122.60
2022-11-23T22:51:30.911Z,119.05
2022-11-23T22:54:00.133Z,113.95
2022-11-23T22:56:29.164Z,122.20
2022-11-23T22:58:57.032Z,130.88
2022-11-23T23:01:26.976Z,129.02
2022-11-23T23:03:56.123Z,130.05
2022-11-23T23:06:26.079Z,124.13
2022-11-23T23:08:58.507Z,135.52
2022-11-23T23:11:28.257Z,124.05
2022-11-23T23:13:56.195Z,128.73
2022-11-23T23:16:24.232Z,144.45
2022-11-23T23:18:51.881Z,169.27
2022-11-23T23:21:21.428Z,115.60
2022-11-23T23:23:54.032Z,127.72
2022-11-23T23:26:23.909Z,137.13
2022-11-23T23:28:59.323Z,129.60
2022-11-23T23:31:27.921Z,118.35
2022-11-23T23:33:55.306Z,118.60
2022-11-23T23:36:24.112Z,114.95
2022-11-23T23:38:51.988Z,133.63
2022-11-23T23:41:19.687Z,111.25
2022-11-23T23:43:48.480Z,137.70
2022-11-23T23:46:16.195Z,146.93
2022-11-23T23:48:44.201Z,127.00
2022-11-23T23:51:15.783Z,118.90
2022-11-23T23:53:44.422Z,121.43
2022-11-23T23:56:17.066Z,120.93
2022-11-23T23:58:45.172Z,115.75
